sensor_id;sensor_type;location;lat;lon;timestamp;P1;durP1;ratioP1;P2;durP2;ratioP2
24729;SDS011;12832;52.392;13.066;2022-11-15T00:01:01;6.22;;;5.75;;
24729;SDS011;12832;52.392;13.066;2022-11-15T00:03:43;5.78;;;5.38;;
24729;SDS011;12832;52.392;13.066;2022-11-15T00:06:19;6.18;;;5.72;;
24729;SDS011;12832;52.392;13.066;2022-11-15T00:08:47;6.50;;;5.95;;
24729;SDS011;12832;52.392;13.066;2022-11-15T00:11:15;5.80;;;5.40;;
24729;SDS011;12832;52.392;13.066;2022-11-15T00:13:46;6.93;;;6.28;;
24729;SDS011;12832;52.392;13.066;2022-11-15T00:16:16;6.35;;;5.85;;
24729;SDS011;12832;52.392;13.066;2022-11-15T00:18:48;6.18;;;5.68;;
24729;SDS011;12832;52.392;13.066;2022-11-15T00:21:17;6.32;;;5.80;;
24729;SDS011;12832;52.392;13.066;2022-11-15T00:23:49;5.53;;;5.13;;
24729;SDS011;12832;52.392;13.066;2022-11-15T00:26:19;5.97;;;5.57;;
24729;SDS011;12832;52.392;13.066;2022-11-15T00:28:46;5.68;;;5.28;;
24729;SDS011;12832;52.392;13.066;2022-11-15T00:31:19;6.07;;;5.60;;
24729;SDS011;12832;52.392;13.066;2022-11-15T00:33:48;6.10;;;5.60;;
24729;SDS011;12832;52.392;13.066;2022-11-15T00:36:18;5.78;;;5.38;;
24729;SDS011;12832;52.392;13.066;2022-11-15T00:38:47;6.15;;;5.65;;
24729;SDS011;12832;52.392;13.066;2022-11-15T00:41:19;6.45;;;5.95;;
24729;SDS011;12832;52.392;13.066;2022-11-15T00:43:50;5.45;;;5.03;;
24729;SDS011;12832;52.392;13.066;2022-11-15T00:46:23;6.35;;;5.85;;
24729;SDS011;12832;52.392;13.066;2022-11-15T00:48:52;5.47;;;5.07;;
24729;SDS011;12832;52.392;13.066;2022-11-15T00:51:21;6.28;;;5.78;;
24729;SDS011;12832;52.392;13.066;2022-11-15T00:53:54;5.78;;;5.38;;
24729;SDS011;12832;52.392;13.066;2022-11-15T00:56:27;5.93;;;5.43;;
24729;SDS011;12832;52.392;13.066;2022-11-15T00:58:57;5.90;;;5.50;;
24729;SDS011;12832;52.392;13.066;2022-11-15T01:01:30;5.80;;;5.40;;
24729;SDS011;12832;52.392;13.066;2022-11-15T01:03:58;6.22;;;5.80;;
24729;SDS011;12832;52.392;13.066;2022-11-15T01:06:28;5.55;;;5.15;;
24729;SDS011;12832;52.392;13.066;2022-11-15T01:08:59;6.38;;;5.85;;
24729;SDS011;12832;52.392;13.066;2022-11-15T01:11:31;6.30;;;5.80;;
24729;SDS011;12832;52.392;13.066;2022-11-15T01:14:04;6.13;;;5.63;;
24729;SDS011;12832;52.392;13.066;2022-11-15T01:16:36;5.72;;;5.22;;
24729;SDS011;12832;52.392;13.066;2022-11-15T01:19:05;6.15;;;5.65;;
24729;SDS011;12832;52.392;13.066;2022-11-15T01:21:37;5.80;;;5.40;;
24729;SDS011;12832;52.392;13.066;2022-11-15T01:24:10;5.75;;;5.25;;
24729;SDS011;12832;52.392;13.066;2022-11-15T01:26:42;5.38;;;4.97;;
24729;SDS011;12832;52.392;13.066;2022-11-15T01:29:14;5.72;;;5.22;;
24729;SDS011;12832;52.392;13.066;2022-11-15T01:31:45;6.40;;;5.90;;
24729;SDS011;12832;52.392;13.066;2022-11-15T01:34:16;5.80;;;5.30;;
24729;SDS011;12832;52.392;13.066;2022-11-15T01:36:51;5.70;;;5.30;;
24729;SDS011;12832;52.392;13.066;2022-11-15T01:39:25;6.15;;;5.65;;
24729;SDS011;12832;52.392;13.066;2022-11-15T01:41:57;5.75;;;5.35;;
24729;SDS011;12832;52.392;13.066;2022-11-15T01:50:00;6.20;;;5.70;;
24729;SDS011;12832;52.392;13.066;2022-11-15T01:52:34;5.53;;;5.13;;
24729;SDS011;12832;52.392;13.066;2022-11-15T01:57:35;5.63;;;5.22;;
24729;SDS011;12832;52.392;13.066;2022-11-15T02:00:05;5.72;;;5.32;;
24729;SDS011;12832;52.392;13.066;2022-11-15T02:02:39;5.45;;;5.05;;
24729;SDS011;12832;52.392;13.066;2022-11-15T02:05:10;5.95;;;5.45;;
24729;SDS011;12832;52.392;13.066;2022-11-15T02:07:41;5.68;;;5.28;;
24729;SDS011;12832;52.392;13.066;2022-11-15T02:10:13;5.47;;;5.07;;
24729;SDS011;12832;52.392;13.066;2022-11-15T02:12:49;5.75;;;5.35;;
24729;SDS011;12832;52.392;13.066;2022-11-15T02:15:23;5.95;;;5.45;;
24729;SDS011;12832;52.392;13.066;2022-11-15T02:18:03;5.68;;;5.28;;
24729;SDS011;12832;52.392;13.066;2022-11-15T02:21:16;6.10;;;5.60;;
24729;SDS011;12832;52.392;13.066;2022-11-15T02:26:50;5.38;;;4.97;;
24729;SDS011;12832;52.392;13.066;2022-11-15T02:35:08;5.25;;;4.85;;
24729;SDS011;12832;52.392;13.066;2022-11-15T02:37:46;6.25;;;5.75;;
24729;SDS011;12832;52.392;13.066;2022-11-15T02:40:26;5.70;;;5.30;;
24729;SDS011;12832;52.392;13.066;2022-11-15T02:43:36;5.72;;;5.32;;
24729;SDS011;12832;52.392;13.066;2022-11-15T02:49:37;5.47;;;5.07;;
24729;SDS011;12832;52.392;13.066;2022-11-15T02:52:08;5.35;;;4.95;;
24729;SDS011;12832;52.392;13.066;2022-11-15T02:54:35;5.05;;;4.65;;
24729;SDS011;12832;52.392;13.066;2022-11-15T02:57:14;5.03;;;4.70;;
24729;SDS011;12832;52.392;13.066;2022-11-15T03:02:43;5.40;;;5.00;;
24729;SDS011;12832;52.392;13.066;2022-11-15T03:05:33;5.15;;;4.75;;
24729;SDS011;12832;52.392;13.066;2022-11-15T03:22:08;5.20;;;4.80;;
24729;SDS011;12832;52.392;13.066;2022-11-15T03:24:43;5.50;;;5.10;;
24729;SDS011;12832;52.392;13.066;2022-11-15T03:27:23;5.35;;;4.95;;
24729;SDS011;12832;52.392;13.066;2022-11-15T03:29:59;5.28;;;4.88;;
24729;SDS011;12832;52.392;13.066;2022-11-15T03:32:42;5.68;;;5.25;;
24729;SDS011;12832;52.392;13.066;2022-11-15T03:35:30;5.55;;;5.15;;
24729;SDS011;12832;52.392;13.066;2022-11-15T03:38:26;5.97;;;5.47;;
24729;SDS011;12832;52.392;13.066;2022-11-15T03:41:05;5.38;;;4.97;;
24729;SDS011;12832;52.392;13.066;2022-11-15T03:43:53;5.40;;;5.00;;
24729;SDS011;12832;52.392;13.066;2022-11-15T03:46:32;5.00;;;4.60;;
24729;SDS011;12832;52.392;13.066;2022-11-15T03:49:16;5.20;;;4.80;;
24729;SDS011;12832;52.392;13.066;2022-11-15T03:51:50;6.00;;;5.55;;
24729;SDS011;12832;52.392;13.066;2022-11-15T03:54:22;5.32;;;4.93;;
24729;SDS011;12832;52.392;13.066;2022-11-15T03:56:53;5.22;;;4.82;;
24729;SDS011;12832;52.392;13.066;2022-11-15T03:59:24;5.10;;;4.70;;
24729;SDS011;12832;52.392;13.066;2022-11-15T04:01:54;5.22;;;4.82;;
24729;SDS011;12832;52.392;13.066;2022-11-15T04:04:22;5.10;;;4.70;;
24729;SDS011;12832;52.392;13.066;2022-11-15T04:06:51;4.93;;;4.53;;
24729;SDS011;12832;52.392;13.066;2022-11-15T04:09:22;5.13;;;4.72;;
24729;SDS011;12832;52.392;13.066;2022-11-15T04:11:48;5.05;;;4.72;;
24729;SDS011;12832;52.392;13.066;2022-11-15T04:14:20;5.00;;;4.60;;
24729;SDS011;12832;52.392;13.066;2022-11-15T04:16:51;4.70;;;4.35;;
24729;SDS011;12832;52.392;13.066;2022-11-15T04:19:17;5.78;;;5.38;;
24729;SDS011;12832;52.392;13.066;2022-11-15T04:22:04;5.30;;;4.90;;
24729;SDS011;12832;52.392;13.066;2022-11-15T04:24:52;5.05;;;4.60;;
24729;SDS011;12832;52.392;13.066;2022-11-15T04:27:23;5.43;;;5.03;;
24729;SDS011;12832;52.392;13.066;2022-11-15T04:29:53;5.30;;;4.90;;
24729;SDS011;12832;52.392;13.066;2022-11-15T04:32:23;5.18;;;4.78;;
24729;SDS011;12832;52.392;13.066;2022-11-15T04:34:51;5.53;;;5.13;;
24729;SDS011;12832;52.392;13.066;2022-11-15T04:37:19;5.07;;;4.68;;
24729;SDS011;12832;52.392;13.066;2022-11-15T04:39:46;5.30;;;4.90;;
24729;SDS011;12832;52.392;13.066;2022-11-15T04:42:15;5.00;;;4.60;;
24729;SDS011;12832;52.392;13.066;2022-11-15T04:44:48;4.93;;;4.53;;
24729;SDS011;12832;52.392;13.066;2022-11-15T04:47:19;5.25;;;4.85;;
24729;SDS011;12832;52.392;13.066;2022-11-15T04:49:50;5.50;;;5.10;;
24729;SDS011;12832;52.392;13.066;2022-11-15T04:52:21;5.47;;;5.07;;
24729;SDS011;12832;52.392;13.066;2022-11-15T04:54:53;4.78;;;4.47;;
24729;SDS011;12832;52.392;13.066;2022-11-15T04:57:30;5.28;;;4.88;;
24729;SDS011;12832;52.392;13.066;2022-11-15T04:59:59;5.30;;;4.90;;
24729;SDS011;12832;52.392;13.066;2022-11-15T05:02:30;5.32;;;4.93;;
24729;SDS011;12832;52.392;13.066;2022-11-15T05:05:17;5.18;;;4.78;;
24729;SDS011;12832;52.392;13.066;2022-11-15T05:07:49;5.25;;;4.85;;
24729;SDS011;12832;52.392;13.066;2022-11-15T05:10:20;5.30;;;4.90;;
24729;SDS011;12832;52.392;13.066;2022-11-15T05:12:46;5.22;;;4.85;;
24729;SDS011;12832;52.392;13.066;2022-11-15T05:15:16;5.30;;;4.90;;
24729;SDS011;12832;52.392;13.066;2022-11-15T05:17:49;5.05;;;4.65;;
24729;SDS011;12832;52.392;13.066;2022-11-15T05:20:19;5.25;;;4.85;;
24729;SDS011;12832;52.392;13.066;2022-11-15T05:22:48;5.10;;;4.70;;
24729;SDS011;12832;52.392;13.066;2022-11-15T05:25:24;5.30;;;4.90;;
24729;SDS011;12832;52.392;13.066;2022-11-15T05:27:55;5.43;;;5.03;;
24729;SDS011;12832;52.392;13.066;2022-11-15T05:30:25;4.97;;;4.57;;
24729;SDS011;12832;52.392;13.066;2022-11-15T05:32:55;5.00;;;4.60;;
24729;SDS011;12832;52.392;13.066;2022-11-15T05:35:31;4.88;;;4.47;;
24729;SDS011;12832;52.392;13.066;2022-11-15T05:38:06;5.28;;;4.88;;
24729;SDS011;12832;52.392;13.066;2022-11-15T05:40:38;4.95;;;4.65;;
24729;SDS011;12832;52.392;13.066;2022-11-15T05:43:09;4.72;;;4.43;;
24729;SDS011;12832;52.392;13.066;2022-11-15T05:45:39;5.07;;;4.68;;
24729;SDS011;12832;52.392;13.066;2022-11-15T05:48:11;6.43;;;4.90;;
24729;SDS011;12832;52.392;13.066;2022-11-15T05:50:45;4.93;;;4.53;;
24729;SDS011;12832;52.392;13.066;2022-11-15T05:53:17;4.90;;;4.50;;
24729;SDS011;12832;52.392;13.066;2022-11-15T05:55:51;5.28;;;4.88;;
24729;SDS011;12832;52.392;13.066;2022-11-15T05:58:21;5.60;;;5.20;;
24729;SDS011;12832;52.392;13.066;2022-11-15T06:00:52;4.10;;;3.75;;
24729;SDS011;12832;52.392;13.066;2022-11-15T06:03:23;4.15;;;3.85;;
24729;SDS011;12832;52.392;13.066;2022-11-15T06:05:56;5.30;;;4.90;;
24729;SDS011;12832;52.392;13.066;2022-11-15T06:08:29;4.90;;;4.50;;
24729;SDS011;12832;52.392;13.066;2022-11-15T06:11:02;6.10;;;5.70;;
24729;SDS011;12832;52.392;13.066;2022-11-15T06:13:34;4.75;;;4.43;;
24729;SDS011;12832;52.392;13.066;2022-11-15T06:16:05;6.00;;;5.50;;
24729;SDS011;12832;52.392;13.066;2022-11-15T06:18:38;6.07;;;5.45;;
24729;SDS011;12832;52.392;13.066;2022-11-15T06:21:07;5.43;;;4.93;;
24729;SDS011;12832;52.392;13.066;2022-11-15T06:23:35;6.50;;;5.90;;
24729;SDS011;12832;52.392;13.066;2022-11-15T06:26:11;6.40;;;5.90;;
24729;SDS011;12832;52.392;13.066;2022-11-15T06:28:39;7.07;;;6.47;;
24729;SDS011;12832;52.392;13.066;2022-11-15T06:31:11;5.93;;;5.43;;
24729;SDS011;12832;52.392;13.066;2022-11-15T06:33:42;6.50;;;6.00;;
24729;SDS011;12832;52.392;13.066;2022-11-15T06:36:20;6.25;;;5.70;;
24729;SDS011;12832;52.392;13.066;2022-11-15T06:38:49;6.50;;;5.80;;
24729;SDS011;12832;52.392;13.066;2022-11-15T06:41:23;5.43;;;5.03;;
24729;SDS011;12832;52.392;13.066;2022-11-15T06:43:52;6.88;;;6.32;;
24729;SDS011;12832;52.392;13.066;2022-11-15T06:46:22;7.45;;;6.78;;
24729;SDS011;12832;52.392;13.066;2022-11-15T06:48:53;7.00;;;6.45;;
24729;SDS011;12832;52.392;13.066;2022-11-15T06:51:25;6.88;;;6.22;;
24729;SDS011;12832;52.392;13.066;2022-11-15T06:53:57;7.30;;;6.70;;
24729;SDS011;12832;52.392;13.066;2022-11-15T06:56:26;6.97;;;6.38;;
24729;SDS011;12832;52.392;13.066;2022-11-15T06:58:58;6.43;;;5.93;;
24729;SDS011;12832;52.392;13.066;2022-11-15T07:01:35;6.50;;;5.93;;
24729;SDS011;12832;52.392;13.066;2022-11-15T07:04:05;6.55;;;5.95;;
24729;SDS011;12832;52.392;13.066;2022-11-15T07:06:33;7.43;;;6.72;;
24729;SDS011;12832;52.392;13.066;2022-11-15T07:09:03;7.80;;;7.00;;
24729;SDS011;12832;52.392;13.066;2022-11-15T07:11:36;6.97;;;6.28;;
24729;SDS011;12832;52.392;13.066;2022-11-15T07:14:06;6.22;;;5.63;;
24729;SDS011;12832;52.392;13.066;2022-11-15T07:16:36;8.02;;;7.22;;
24729;SDS011;12832;52.392;13.066;2022-11-15T07:19:08;7.07;;;6.28;;
24729;SDS011;12832;52.392;13.066;2022-11-15T07:21:38;7.05;;;6.25;;
24729;SDS011;12832;52.392;13.066;2022-11-15T07:24:10;8.23;;;7.43;;
24729;SDS011;12832;52.392;13.066;2022-11-15T07:26:41;6.95;;;6.13;;
24729;SDS011;12832;52.392;13.066;2022-11-15T07:29:10;10.73;;;7.00;;
24729;SDS011;12832;52.392;13.066;2022-11-15T07:31:40;6.28;;;5.68;;
24729;SDS011;12832;52.392;13.066;2022-11-15T07:34:11;8.10;;;7.03;;
24729;SDS011;12832;52.392;13.066;2022-11-15T07:36:38;8.77;;;6.18;;
24729;SDS011;12832;52.392;13.066;2022-11-15T07:39:08;6.95;;;6.00;;
24729;SDS011;12832;52.392;13.066;2022-11-15T07:41:40;6.20;;;5.55;;
24729;SDS011;12832;52.392;13.066;2022-11-15T07:44:12;6.22;;;5.63;;
24729;SDS011;12832;52.392;13.066;2022-11-15T07:46:42;7.20;;;6.22;;
24729;SDS011;12832;52.392;13.066;2022-11-15T07:49:12;8.55;;;6.40;;
24729;SDS011;12832;52.392;13.066;2022-11-15T07:51:41;8.20;;;6.50;;
24729;SDS011;12832;52.392;13.066;2022-11-15T07:54:12;7.80;;;7.00;;
24729;SDS011;12832;52.392;13.066;2022-11-15T07:56:41;7.15;;;6.18;;
24729;SDS011;12832;52.392;13.066;2022-11-15T07:59:10;6.90;;;6.30;;
24729;SDS011;12832;52.392;13.066;2022-11-15T08:01:43;6.55;;;6.05;;
24729;SDS011;12832;52.392;13.066;2022-11-15T08:04:17;7.13;;;5.75;;
24729;SDS011;12832;52.392;13.066;2022-11-15T08:06:45;7.93;;;6.65;;
24729;SDS011;12832;52.392;13.066;2022-11-15T08:09:17;6.68;;;6.03;;
24729;SDS011;12832;52.392;13.066;2022-11-15T08:11:49;7.00;;;5.65;;
24729;SDS011;12832;52.392;13.066;2022-11-15T08:14:18;6.60;;;5.95;;
24729;SDS011;12832;52.392;13.066;2022-11-15T08:16:53;8.55;;;6.70;;
24729;SDS011;12832;52.392;13.066;2022-11-15T08:19:23;6.22;;;5.65;;
24729;SDS011;12832;52.392;13.066;2022-11-15T08:21:55;6.57;;;5.82;;
24729;SDS011;12832;52.392;13.066;2022-11-15T08:24:24;8.18;;;6.10;;
24729;SDS011;12832;52.392;13.066;2022-11-15T08:26:55;6.38;;;4.70;;
24729;SDS011;12832;52.392;13.066;2022-11-15T08:29:27;6.50;;;5.50;;
24729;SDS011;12832;52.392;13.066;2022-11-15T08:31:58;5.65;;;4.53;;
24729;SDS011;12832;52.392;13.066;2022-11-15T08:34:26;5.88;;;5.20;;
24729;SDS011;12832;52.392;13.066;2022-11-15T08:36:59;8.02;;;6.20;;
24729;SDS011;12832;52.392;13.066;2022-11-15T08:39:33;5.18;;;4.68;;
24729;SDS011;12832;52.392;13.066;2022-11-15T08:42:02;5.35;;;4.95;;
24729;SDS011;12832;52.392;13.066;2022-11-15T08:44:33;7.95;;;5.40;;
24729;SDS011;12832;52.392;13.066;2022-11-15T08:47:04;6.20;;;5.60;;
24729;SDS011;12832;52.392;13.066;2022-11-15T08:49:42;5.70;;;4.32;;
24729;SDS011;12832;52.392;13.066;2022-11-15T08:52:13;5.32;;;4.82;;
24729;SDS011;12832;52.392;13.066;2022-11-15T08:54:50;6.28;;;5.68;;
24729;SDS011;12832;52.392;13.066;2022-11-15T08:57:20;5.85;;;5.35;;
24729;SDS011;12832;52.392;13.066;2022-11-15T08:59:54;5.22;;;4.82;;
24729;SDS011;12832;52.392;13.066;2022-11-15T09:02:23;5.32;;;4.90;;
24729;SDS011;12832;52.392;13.066;2022-11-15T09:04:52;5.25;;;4.85;;
24729;SDS011;12832;52.392;13.066;2022-11-15T09:07:23;5.38;;;4.88;;
24729;SDS011;12832;52.392;13.066;2022-11-15T09:10:01;5.45;;;4.97;;
24729;SDS011;12832;52.392;13.066;2022-11-15T09:12:31;5.30;;;4.88;;
24729;SDS011;12832;52.392;13.066;2022-11-15T09:14:59;7.03;;;4.97;;
24729;SDS011;12832;52.392;13.066;2022-11-15T09:17:32;5.07;;;4.68;;
24729;SDS011;12832;52.392;13.066;2022-11-15T09:20:06;5.82;;;4.65;;
24729;SDS011;12832;52.392;13.066;2022-11-15T09:22:47;5.00;;;4.55;;
24729;SDS011;12832;52.392;13.066;2022-11-15T09:25:22;5.38;;;4.95;;
24729;SDS011;12832;52.392;13.066;2022-11-15T09:27:56;4.95;;;4.55;;
24729;SDS011;12832;52.392;13.066;2022-11-15T09:30:29;5.07;;;4.63;;
24729;SDS011;12832;52.392;13.066;2022-11-15T09:33:12;4.80;;;4.40;;
24729;SDS011;12832;52.392;13.066;2022-11-15T09:35:49;4.40;;;4.00;;
24729;SDS011;12832;52.392;13.066;2022-11-15T09:38:21;5.03;;;4.63;;
24729;SDS011;12832;52.392;13.066;2022-11-15T09:44:12;4.97;;;4.32;;
24729;SDS011;12832;52.392;13.066;2022-11-15T09:49:41;5.88;;;4.97;;
24729;SDS011;12832;52.392;13.066;2022-11-15T09:52:12;4.68;;;4.28;;
24729;SDS011;12832;52.392;13.066;2022-11-15T09:54:47;5.30;;;4.80;;
24729;SDS011;12832;52.392;13.066;2022-11-15T10:00:38;6.05;;;4.80;;
24729;SDS011;12832;52.392;13.066;2022-11-15T10:03:15;7.13;;;5.13;;
24729;SDS011;12832;52.392;13.066;2022-11-15T10:06:01;5.85;;;4.72;;
24729;SDS011;12832;52.392;13.066;2022-11-15T10:11:24;5.10;;;4.60;;
24729;SDS011;12832;52.392;13.066;2022-11-15T10:14:10;4.32;;;3.92;;
24729;SDS011;12832;52.392;13.066;2022-11-15T10:17:08;4.53;;;3.97;;
24729;SDS011;12832;52.392;13.066;2022-11-15T10:25:13;5.28;;;4.60;;
24729;SDS011;12832;52.392;13.066;2022-11-15T10:30:42;5.50;;;5.00;;
24729;SDS011;12832;52.392;13.066;2022-11-15T10:44:02;5.05;;;4.55;;
24729;SDS011;12832;52.392;13.066;2022-11-15T10:49:27;6.38;;;4.55;;
24729;SDS011;12832;52.392;13.066;2022-11-15T10:52:04;4.65;;;4.25;;
24729;SDS011;12832;52.392;13.066;2022-11-15T10:55:01;4.80;;;4.35;;
24729;SDS011;12832;52.392;13.066;2022-11-15T10:57:39;6.47;;;4.60;;
24729;SDS011;12832;52.392;13.066;2022-11-15T11:00:26;4.32;;;3.88;;
24729;SDS011;12832;52.392;13.066;2022-11-15T11:06:17;3.85;;;3.55;;
24729;SDS011;12832;52.392;13.066;2022-11-15T11:09:01;4.60;;;4.05;;
24729;SDS011;12832;52.392;13.066;2022-11-15T11:11:47;4.15;;;3.75;;
24729;SDS011;12832;52.392;13.066;2022-11-15T11:14:21;4.97;;;3.90;;
24729;SDS011;12832;52.392;13.066;2022-11-15T11:19:32;4.10;;;3.67;;
24729;SDS011;12832;52.392;13.066;2022-11-15T11:22:27;4.78;;;4.28;;
24729;SDS011;12832;52.392;13.066;2022-11-15T11:31:00;4.72;;;3.90;;
24729;SDS011;12832;52.392;13.066;2022-11-15T11:33:48;5.50;;;3.83;;
24729;SDS011;12832;52.392;13.066;2022-11-15T11:42:52;3.42;;;3.13;;
24729;SDS011;12832;52.392;13.066;2022-11-15T11:48:14;3.78;;;3.47;;
24729;SDS011;12832;52.392;13.066;2022-11-15T11:51:26;4.95;;;3.72;;
24729;SDS011;12832;52.392;13.066;2022-11-15T11:54:14;3.53;;;3.22;;
24729;SDS011;12832;52.392;13.066;2022-11-15T11:56:55;3.70;;;3.40;;
24729;SDS011;12832;52.392;13.066;2022-11-15T12:02:28;4.68;;;3.47;;
24729;SDS011;12832;52.392;13.066;2022-11-15T12:11:10;3.88;;;3.50;;
24729;SDS011;12832;52.392;13.066;2022-11-15T12:14:17;3.70;;;3.40;;
24729;SDS011;12832;52.392;13.066;2022-11-15T12:17:05;4.07;;;3.67;;
24729;SDS011;12832;52.392;13.066;2022-11-15T12:19:37;3.78;;;3.47;;
24729;SDS011;12832;52.392;13.066;2022-11-15T12:22:13;4.00;;;3.60;;
24729;SDS011;12832;52.392;13.066;2022-11-15T12:30:41;5.43;;;3.65;;
24729;SDS011;12832;52.392;13.066;2022-11-15T12:33:29;3.30;;;3.00;;
24729;SDS011;12832;52.392;13.066;2022-11-15T12:41:32;4.60;;;3.30;;
24729;SDS011;12832;52.392;13.066;2022-11-15T12:44:03;4.88;;;3.47;;
24729;SDS011;12832;52.392;13.066;2022-11-15T12:49:10;4.35;;;3.83;;
24729;SDS011;12832;52.392;13.066;2022-11-15T12:54:49;3.92;;;3.55;;
24729;SDS011;12832;52.392;13.066;2022-11-15T12:57:30;4.00;;;3.35;;
24729;SDS011;12832;52.392;13.066;2022-11-15T13:02:43;4.80;;;3.50;;
24729;SDS011;12832;52.392;13.066;2022-11-15T13:05:53;3.10;;;2.88;;
24729;SDS011;12832;52.392;13.066;2022-11-15T13:08:34;4.65;;;3.42;;
24729;SDS011;12832;52.392;13.066;2022-11-15T13:11:41;3.88;;;3.45;;
24729;SDS011;12832;52.392;13.066;2022-11-15T13:22:40;4.07;;;3.53;;
24729;SDS011;12832;52.392;13.066;2022-11-15T13:25:48;4.03;;;3.60;;
24729;SDS011;12832;52.392;13.066;2022-11-15T13:34:20;3.42;;;3.15;;
24729;SDS011;12832;52.392;13.066;2022-11-15T13:39:50;4.85;;;3.17;;
24729;SDS011;12832;52.392;13.066;2022-11-15T13:42:19;4.72;;;3.38;;
24729;SDS011;12832;52.392;13.066;2022-11-15T13:44:56;3.10;;;2.90;;
24729;SDS011;12832;52.392;13.066;2022-11-15T13:47:29;3.58;;;3.28;;
24729;SDS011;12832;52.392;13.066;2022-11-15T13:49:59;3.85;;;3.20;;
24729;SDS011;12832;52.392;13.066;2022-11-15T13:52:38;3.05;;;2.70;;
24729;SDS011;12832;52.392;13.066;2022-11-15T13:55:16;3.80;;;3.50;;
24729;SDS011;12832;52.392;13.066;2022-11-15T13:57:59;4.38;;;3.53;;
24729;SDS011;12832;52.392;13.066;2022-11-15T14:00:57;3.70;;;3.33;;
24729;SDS011;12832;52.392;13.066;2022-11-15T14:03:33;3.90;;;3.30;;
24729;SDS011;12832;52.392;13.066;2022-11-15T14:06:16;4.05;;;3.65;;
24729;SDS011;12832;52.392;13.066;2022-11-15T14:11:29;3.72;;;3.35;;
24729;SDS011;12832;52.392;13.066;2022-11-15T14:16:58;4.20;;;3.40;;
24729;SDS011;12832;52.392;13.066;2022-11-15T14:19:49;4.18;;;3.78;;
24729;SDS011;12832;52.392;13.066;2022-11-15T14:22:27;3.53;;;3.22;;
24729;SDS011;12832;52.392;13.066;2022-11-15T14:25:18;4.45;;;3.65;;
24729;SDS011;12832;52.392;13.066;2022-11-15T14:28:08;3.83;;;3.40;;
24729;SDS011;12832;52.392;13.066;2022-11-15T14:30:45;3.75;;;3.45;;
24729;SDS011;12832;52.392;13.066;2022-11-15T14:33:21;4.97;;;3.83;;
24729;SDS011;12832;52.392;13.066;2022-11-15T14:36:13;4.68;;;4.28;;
24729;SDS011;12832;52.392;13.066;2022-11-15T14:38:50;4.25;;;3.50;;
24729;SDS011;12832;52.392;13.066;2022-11-15T14:41:24;4.70;;;3.47;;
24729;SDS011;12832;52.392;13.066;2022-11-15T14:44:03;3.97;;;3.65;;
24729;SDS011;12832;52.392;13.066;2022-11-15T14:46:45;4.43;;;3.58;;
24729;SDS011;12832;52.392;13.066;2022-11-15T14:49:12;3.88;;;3.58;;
24729;SDS011;12832;52.392;13.066;2022-11-15T14:51:46;4.32;;;3.63;;
24729;SDS011;12832;52.392;13.066;2022-11-15T14:54:17;4.15;;;3.75;;
24729;SDS011;12832;52.392;13.066;2022-11-15T14:56:47;4.45;;;3.80;;
24729;SDS011;12832;52.392;13.066;2022-11-15T14:59:21;3.70;;;3.40;;
24729;SDS011;12832;52.392;13.066;2022-11-15T15:01:52;5.13;;;3.58;;
24729;SDS011;12832;52.392;13.066;2022-11-15T15:04:24;3.70;;;3.40;;
24729;SDS011;12832;52.392;13.066;2022-11-15T15:06:55;4.00;;;3.60;;
24729;SDS011;12832;52.392;13.066;2022-11-15T15:09:28;3.63;;;3.33;;
24729;SDS011;12832;52.392;13.066;2022-11-15T15:11:59;3.47;;;3.17;;
24729;SDS011;12832;52.392;13.066;2022-11-15T15:14:31;3.95;;;3.58;;
24729;SDS011;12832;52.392;13.066;2022-11-15T15:16:58;4.47;;;4.07;;
24729;SDS011;12832;52.392;13.066;2022-11-15T15:19:32;3.83;;;3.30;;
24729;SDS011;12832;52.392;13.066;2022-11-15T15:22:04;3.72;;;3.28;;
24729;SDS011;12832;52.392;13.066;2022-11-15T15:24:32;4.68;;;3.67;;
24729;SDS011;12832;52.392;13.066;2022-11-15T15:27:04;5.18;;;3.78;;
24729;SDS011;12832;52.392;13.066;2022-11-15T15:29:32;4.03;;;3.63;;
24729;SDS011;12832;52.392;13.066;2022-11-15T15:32:06;4.35;;;3.75;;
24729;SDS011;12832;52.392;13.066;2022-11-15T15:34:34;4.32;;;3.92;;
24729;SDS011;12832;52.392;13.066;2022-11-15T15:39:56;3.67;;;3.35;;
24729;SDS011;12832;52.392;13.066;2022-11-15T15:42:31;5.35;;;3.78;;
24729;SDS011;12832;52.392;13.066;2022-11-15T15:44:59;4.00;;;3.58;;
24729;SDS011;12832;52.392;13.066;2022-11-15T15:47:28;3.60;;;3.30;;
24729;SDS011;12832;52.392;13.066;2022-11-15T15:49:59;5.20;;;4.30;;
24729;SDS011;12832;52.392;13.066;2022-11-15T15:52:32;5.88;;;4.00;;
24729;SDS011;12832;52.392;13.066;2022-11-15T15:55:08;4.53;;;3.97;;
24729;SDS011;12832;52.392;13.066;2022-11-15T15:57:38;3.92;;;3.42;;
24729;SDS011;12832;52.392;13.066;2022-11-15T16:00:08;3.90;;;3.60;;
24729;SDS011;12832;52.392;13.066;2022-11-15T16:02:44;4.40;;;3.88;;
24729;SDS011;12832;52.392;13.066;2022-11-15T16:05:17;3.90;;;3.50;;
24729;SDS011;12832;52.392;13.066;2022-11-15T16:07:47;4.55;;;3.80;;
24729;SDS011;12832;52.392;13.066;2022-11-15T16:12:55;4.32;;;3.92;;
24729;SDS011;12832;52.392;13.066;2022-11-15T16:15:28;4.28;;;3.97;;
24729;SDS011;12832;52.392;13.066;2022-11-15T16:17:59;4.85;;;4.35;;
24729;SDS011;12832;52.392;13.066;2022-11-15T16:20:32;4.45;;;3.92;;
24729;SDS011;12832;52.392;13.066;2022-11-15T16:23:19;5.05;;;4.55;;
24729;SDS011;12832;52.392;13.066;2022-11-15T16:25:53;5.03;;;4.10;;
24729;SDS011;12832;52.392;13.066;2022-11-15T16:28:24;5.03;;;4.22;;
24729;SDS011;12832;52.392;13.066;2022-11-15T16:31:00;4.40;;;4.00;;
24729;SDS011;12832;52.392;13.066;2022-11-15T16:33:36;5.43;;;3.95;;
24729;SDS011;12832;52.392;13.066;2022-11-15T16:36:12;4.68;;;4.20;;
24729;SDS011;12832;52.392;13.066;2022-11-15T16:38:57;4.22;;;3.83;;
24729;SDS011;12832;52.392;13.066;2022-11-15T16:41:26;5.30;;;4.80;;
24729;SDS011;12832;52.392;13.066;2022-11-15T16:43:57;4.75;;;4.35;;
24729;SDS011;12832;52.392;13.066;2022-11-15T16:46:28;5.28;;;4.63;;
24729;SDS011;12832;52.392;13.066;2022-11-15T16:48:58;5.10;;;4.63;;
24729;SDS011;12832;52.392;13.066;2022-11-15T16:51:30;4.63;;;4.22;;
24729;SDS011;12832;52.392;13.066;2022-11-15T16:54:01;6.07;;;4.65;;
24729;SDS011;12832;52.392;13.066;2022-11-15T16:56:36;5.15;;;4.65;;
24729;SDS011;12832;52.392;13.066;2022-11-15T16:59:05;4.93;;;4.47;;
24729;SDS011;12832;52.392;13.066;2022-11-15T17:01:47;5.32;;;4.82;;
24729;SDS011;12832;52.392;13.066;2022-11-15T17:04:18;5.30;;;4.80;;
24729;SDS011;12832;52.392;13.066;2022-11-15T17:06:48;5.47;;;4.97;;
24729;SDS011;12832;52.392;13.066;2022-11-15T17:09:24;4.90;;;4.43;;
24729;SDS011;12832;52.392;13.066;2022-11-15T17:11:59;5.20;;;4.70;;
24729;SDS011;12832;52.392;13.066;2022-11-15T17:14:30;4.88;;;4.47;;
24729;SDS011;12832;52.392;13.066;2022-11-15T17:17:00;5.47;;;4.97;;
24729;SDS011;12832;52.392;13.066;2022-11-15T17:19:34;5.68;;;5.18;;
24729;SDS011;12832;52.392;13.066;2022-11-15T17:22:05;5.78;;;5.28;;
24729;SDS011;12832;52.392;13.066;2022-11-15T17:24:35;5.10;;;4.60;;
24729;SDS011;12832;52.392;13.066;2022-11-15T17:27:07;5.10;;;4.70;;
24729;SDS011;12832;52.392;13.066;2022-11-15T17:29:42;5.88;;;5.28;;
24729;SDS011;12832;52.392;13.066;2022-11-15T17:32:13;5.30;;;4.90;;
24729;SDS011;12832;52.392;13.066;2022-11-15T17:34:42;5.22;;;4.72;;
24729;SDS011;12832;52.392;13.066;2022-11-15T17:37:12;5.78;;;5.18;;
24729;SDS011;12832;52.392;13.066;2022-11-15T17:39:42;5.25;;;4.75;;
24729;SDS011;12832;52.392;13.066;2022-11-15T17:42:11;5.22;;;4.72;;
24729;SDS011;12832;52.392;13.066;2022-11-15T17:44:40;5.43;;;4.93;;